createdAt,value
2023-04-15T00:00:08.562Z,99584.22
2023-04-15T00:03:10.780Z,99581.66
2023-04-15T00:06:13.698Z,99580.44
2023-04-15T00:09:15.874Z,99578.72
2023-04-15T00:12:17.672Z,99576.47
2023-04-15T00:15:19.712Z,99583.69
2023-04-15T00:18:21.857Z,99583.03
2023-04-15T00:21:23.836Z,99583.41
2023-04-15T00:24:25.600Z,99579.53
2023-04-15T00:27:27.516Z,99578.53
2023-04-15T00:30:29.369Z,99580.19
2023-04-15T00:33:31.918Z,99579.16
2023-04-15T00:36:35.097Z,99571.84
2023-04-15T00:39:36.997Z,99570.19
2023-04-15T00:42:39.507Z,99567.47
2023-04-15T00:45:41.378Z,99573.38
2023-04-15T00:48:44.080Z,99571.75
2023-04-15T00:51:46.211Z,99574.34
2023-04-15T00:54:48.030Z,99576.75
2023-04-15T00:57:50.703Z,99582.00
2023-04-15T01:00:54.513Z,99577.25
2023-04-15T01:04:00.699Z,99569.94
2023-04-15T01:07:02.647Z,99569.69
2023-04-15T01:10:05.212Z,99576.31
2023-04-15T01:13:07.097Z,99572.53
2023-04-15T01:16:09.646Z,99578.19
2023-04-15T01:19:12.150Z,99578.69
2023-04-15T01:22:14.526Z,99576.72
2023-04-15T01:25:20.411Z,99579.16
2023-04-15T01:28:22.377Z,99570.88
2023-04-15T01:31:24.272Z,99571.06
2023-04-15T01:34:26.383Z,99560.94
2023-04-15T01:37:28.453Z,99572.84
2023-04-15T01:40:30.435Z,99574.44
2023-04-15T01:43:32.514Z,99566.19
2023-04-15T01:46:34.557Z,99567.53
2023-04-15T01:49:37.201Z,99573.03
2023-04-15T01:52:39.104Z,99573.87
2023-04-15T01:55:41.322Z,99570.50
2023-04-15T01:58:45.587Z,99572.88
2023-04-15T02:01:47.363Z,99571.56
2023-04-15T02:04:49.142Z,99572.31
2023-04-15T02:07:51.349Z,99574.81
2023-04-15T02:10:53.233Z,99573.75
2023-04-15T02:13:55.160Z,99582.53
2023-04-15T02:16:57.020Z,99582.34
2023-04-15T02:19:59.346Z,99577.69
2023-04-15T02:23:01.925Z,99574.94
2023-04-15T02:26:03.756Z,99574.75
2023-04-15T02:29:05.897Z,99565.63
2023-04-15T02:32:08.248Z,99565.63
2023-04-15T02:35:10.268Z,99572.59
2023-04-15T02:38:12.284Z,99567.37
2023-04-15T02:41:14.311Z,99571.72
2023-04-15T02:44:17.660Z,99569.94
2023-04-15T02:47:19.515Z,99568.09
2023-04-15T02:50:21.560Z,99565.44
2023-04-15T02:53:23.372Z,99567.06
2023-04-15T02:56:25.361Z,99564.53
2023-04-15T02:59:27.298Z,99573.53
2023-04-15T03:02:34.710Z,99569.66
2023-04-15T03:05:38.967Z,99570.41
2023-04-15T03:08:41.604Z,99567.47
2023-04-15T03:11:43.485Z,99557.59
2023-04-15T03:14:45.585Z,99548.25
2023-04-15T03:17:49.566Z,99554.25
2023-04-15T03:20:51.821Z,99571.91
2023-04-15T03:23:53.827Z,99593.66
2023-04-15T03:26:56.473Z,99569.22
2023-04-15T03:29:58.240Z,99570.66
2023-04-15T03:33:00.093Z,99564.66
2023-04-15T03:36:01.971Z,99580.47
2023-04-15T03:39:04.271Z,99578.94
2023-04-15T03:42:06.234Z,99566.66
2023-04-15T03:45:08.373Z,99565.63
2023-04-15T03:48:16.482Z,99560.78
2023-04-15T03:51:19.399Z,99562.59
2023-04-15T03:54:21.299Z,99567.28
2023-04-15T03:57:23.133Z,99563.59
2023-04-15T04:00:25.475Z,99568.72
2023-04-15T04:03:27.629Z,99568.34
2023-04-15T04:06:29.634Z,99567.56
2023-04-15T04:09:31.697Z,99563.28
2023-04-15T04:12:33.540Z,99574.63
2023-04-15T04:15:35.698Z,99576.22
2023-04-15T04:18:37.512Z,99576.22
2023-04-15T04:21:39.749Z,99573.38
2023-04-15T04:24:41.677Z,99571.41
2023-04-15T04:27:43.648Z,99571.28
2023-04-15T04:30:45.654Z,99568.63
2023-04-15T04:33:47.380Z,99569.69
2023-04-15T04:36:49.104Z,99567.00
2023-04-15T04:39:51.166Z,99575.78
2023-04-15T04:42:53.808Z,99573.03
2023-04-15T04:45:55.830Z,99572.16
2023-04-15T04:48:58.076Z,99569.59
2023-04-15T04:52:00.566Z,99579.75
2023-04-15T04:55:02.409Z,99569.69
2023-04-15T04:58:04.291Z,99575.66
2023-04-15T05:01:06.153Z,99575.31
2023-04-15T05:04:08.186Z,99578.91
2023-04-15T05:07:10.826Z,99578.66
2023-04-15T05:10:12.984Z,99554.72
2023-04-15T05:13:14.908Z,99561.66
2023-04-15T05:16:17.738Z,99560.91
2023-04-15T05:19:19.754Z,99558.81
2023-04-15T05:22:21.807Z,99548.50
2023-04-15T05:25:23.573Z,99556.59
2023-04-15T05:28:25.689Z,99548.12
2023-04-15T05:31:27.690Z,99550.59
2023-04-15T05:34:29.509Z,99542.16
2023-04-15T05:37:31.330Z,99553.25
2023-04-15T05:40:33.130Z,99561.03
2023-04-15T05:43:35.331Z,99571.31
2023-04-15T05:46:37.300Z,99566.13
2023-04-15T05:49:39.232Z,99563.66
2023-04-15T05:52:41.211Z,99563.28
2023-04-15T05:55:42.955Z,99564.19
2023-04-15T05:58:44.882Z,99568.97
2023-04-15T06:01:47.200Z,99571.03
2023-04-15T06:04:49.193Z,99571.31
2023-04-15T06:07:51.381Z,99584.91
2023-04-15T06:10:53.172Z,99580.28
2023-04-15T06:13:55.244Z,99588.59
2023-04-15T06:16:57.294Z,99596.34
2023-04-15T06:19:59.241Z,99593.91
2023-04-15T06:23:01.140Z,99598.53
2023-04-15T06:26:03.158Z,99603.66
2023-04-15T06:29:04.960Z,99602.31
2023-04-15T06:32:07.139Z,99594.31
2023-04-15T06:35:09.383Z,99591.44
2023-04-15T06:38:11.438Z,99603.91
2023-04-15T06:41:13.434Z,99605.31
2023-04-15T06:44:15.170Z,99608.12
2023-04-15T06:47:16.918Z,99614.97
2023-04-15T06:50:18.824Z,99611.34
2023-04-15T06:53:20.778Z,99613.91
2023-04-15T06:56:23.421Z,99620.81
2023-04-15T06:59:25.424Z,99613.94
2023-04-15T07:02:27.690Z,99619.28
2023-04-15T07:05:31.056Z,99609.78
2023-04-15T07:08:33.759Z,99618.22
2023-04-15T07:11:36.576Z,99625.38
2023-04-15T07:14:38.378Z,99630.53
2023-04-15T07:17:41.764Z,99626.00
2023-04-15T07:20:44.188Z,99625.59
2023-04-15T07:23:46.481Z,99627.66
2023-04-15T07:26:50.551Z,99633.53
2023-04-15T07:29:53.621Z,99621.94
2023-04-15T07:33:01.407Z,99628.81
2023-04-15T07:36:04.576Z,99631.06
2023-04-15T07:39:06.760Z,99631.81
2023-04-15T07:42:08.812Z,99613.88
2023-04-15T07:45:11.596Z,99626.19
2023-04-15T07:48:13.437Z,99620.91
2023-04-15T07:51:15.283Z,99611.19
2023-04-15T07:54:17.189Z,99618.47
2023-04-15T07:57:18.947Z,99622.38
2023-04-15T08:00:20.818Z,99620.78
2023-04-15T08:03:23.800Z,99626.72
2023-04-15T08:06:25.902Z,99626.91
2023-04-15T08:09:27.684Z,99630.38
2023-04-15T08:12:29.522Z,99621.63
2023-04-15T08:15:32.942Z,99622.44
2023-04-15T08:18:35.115Z,99609.63
2023-04-15T08:21:37.196Z,99596.53
2023-04-15T08:24:39.212Z,99582.06
2023-04-15T08:27:41.587Z,99592.13
2023-04-15T08:30:43.417Z,99568.69
2023-04-15T08:33:46.077Z,99581.37
2023-04-15T08:36:47.988Z,99577.56
2023-04-15T08:39:50.089Z,99590.91
2023-04-15T08:42:54.426Z,99586.53
2023-04-15T08:45:59.032Z,99594.69
2023-04-15T08:49:04.286Z,99592.84
2023-04-15T08:52:07.494Z,99604.44
2023-04-15T08:55:09.854Z,99593.84
2023-04-15T08:58:16.028Z,99595.09
2023-04-15T09:01:17.942Z,99581.37
2023-04-15T09:04:20.583Z,99575.84
2023-04-15T09:07:22.394Z,99561.13
2023-04-15T09:10:24.231Z,99544.75
2023-04-15T09:13:26.101Z,99546.13
2023-04-15T09:16:28.483Z,99525.12
2023-04-15T09:19:31.619Z,99539.47
2023-04-15T09:22:33.545Z,99552.00
2023-04-15T09:25:35.804Z,99523.53
2023-04-15T09:28:43.836Z,99538.13
2023-04-15T09:31:46.464Z,99537.38
2023-04-15T09:34:48.324Z,99550.00
2023-04-15T09:37:50.971Z,99551.16
2023-04-15T09:40:52.821Z,99548.34
2023-04-15T09:43:55.163Z,99567.37
2023-04-15T09:46:56.906Z,99552.16
2023-04-15T09:50:01.017Z,99545.34
2023-04-15T09:53:04.018Z,99508.91
2023-04-15T09:56:08.074Z,99472.38
2023-04-15T09:59:10.021Z,99498.66
2023-04-15T10:02:13.867Z,99498.53
2023-04-15T10:05:17.934Z,99515.00
2023-04-15T10:08:21.937Z,99489.47
2023-04-15T10:11:24.803Z,99482.37
2023-04-15T10:14:29.290Z,99480.38
2023-04-15T10:17:35.668Z,99500.59
2023-04-15T10:20:38.551Z,99504.59
2023-04-15T10:23:40.371Z,99495.84
2023-04-15T10:26:42.949Z,99522.38
2023-04-15T10:29:45.530Z,99490.75
2023-04-15T10:32:47.501Z,99505.66
2023-04-15T10:35:51.737Z,99525.59
2023-04-15T10:38:53.689Z,99527.53
2023-04-15T10:42:15.941Z,99539.75
2023-04-15T10:45:19.404Z,99524.44
2023-04-15T10:48:21.185Z,99520.41
2023-04-15T10:51:30.690Z,99527.91
2023-04-15T10:54:33.676Z,99537.53
2023-04-15T10:57:38.716Z,99525.75
2023-04-15T11:00:40.464Z,99544.25
2023-04-15T11:03:43.811Z,99539.75
2023-04-15T11:06:46.253Z,99529.69
2023-04-15T11:09:48.038Z,99545.22
2023-04-15T11:12:58.190Z,99546.84
2023-04-15T11:16:01.709Z,99551.19
2023-04-15T11:19:03.869Z,99568.81
2023-04-15T11:22:10.222Z,99561.34
2023-04-15T11:25:29.540Z,99586.06
2023-04-15T11:28:32.170Z,99578.50
2023-04-15T11:31:36.337Z,99569.13
2023-04-15T11:34:38.218Z,99563.56
2023-04-15T11:37:40.655Z,99563.25
2023-04-15T11:40:46.220Z,99558.41
2023-04-15T11:43:49.755Z,99573.50
2023-04-15T11:46:51.614Z,99568.63
2023-04-15T11:49:53.378Z,99576.16
2023-04-15T11:52:59.789Z,99571.94
2023-04-15T11:56:01.943Z,99568.22
2023-04-15T11:59:04.515Z,99564.72
2023-04-15T12:02:15.240Z,99551.97
2023-04-15T12:05:17.410Z,99564.97
2023-04-15T12:08:19.362Z,99569.09
2023-04-15T12:11:57.530Z,99584.09
2023-04-15T12:14:59.973Z,99581.56
2023-04-15T12:18:01.934Z,99582.31
2023-04-15T12:21:14.650Z,99582.69
2023-04-15T12:24:21.446Z,99590.66
2023-04-15T12:27:29.681Z,99580.19
2023-04-15T12:30:32.264Z,99573.47
2023-04-15T12:33:34.738Z,99598.56
2023-04-15T12:36:37.226Z,99596.50
2023-04-15T12:39:41.155Z,99595.84
2023-04-15T12:42:43.012Z,99595.97
2023-04-15T12:45:44.856Z,99599.00
2023-04-15T12:48:46.666Z,99611.91
2023-04-15T12:51:50.400Z,99593.47
2023-04-15T12:54:53.375Z,99603.28
2023-04-15T12:57:55.154Z,99590.41
2023-04-15T13:00:57.474Z,99599.41
2023-04-15T13:03:59.511Z,99605.06
2023-04-15T13:07:02.211Z,99594.06
2023-04-15T13:10:04.259Z,99605.25
2023-04-15T13:13:06.254Z,99619.44
2023-04-15T13:16:08.331Z,99630.81
2023-04-15T13:19:10.730Z,99638.25
2023-04-15T13:22:14.934Z,99640.53
2023-04-15T13:25:16.814Z,99648.69
2023-04-15T13:28:18.728Z,99647.94
2023-04-15T13:31:20.547Z,99659.19
2023-04-15T13:34:23.415Z,99659.19
2023-04-15T13:37:30.004Z,99655.28
2023-04-15T13:40:31.870Z,99657.47
2023-04-15T13:43:34.371Z,99658.37
2023-04-15T13:46:36.304Z,99644.72
2023-04-15T13:49:38.177Z,99651.19
2023-04-15T13:52:43.311Z,99661.50
2023-04-15T13:55:45.384Z,99643.09
2023-04-15T13:58:47.130Z,99661.97
2023-04-15T14:01:49.200Z,99664.09
2023-04-15T14:04:51.422Z,99656.09
2023-04-15T14:07:53.192Z,99676.97
2023-04-15T14:10:54.949Z,99681.84
2023-04-15T14:13:56.820Z,99684.50
2023-04-15T14:16:58.833Z,99682.41
2023-04-15T14:20:00.853Z,99685.19
2023-04-15T14:23:03.033Z,99700.72
2023-04-15T14:26:05.088Z,99668.06
2023-04-15T14:29:07.315Z,99709.13
2023-04-15T14:32:11.961Z,99707.84
2023-04-15T14:35:14.681Z,99693.78
2023-04-15T14:38:17.444Z,99703.09
2023-04-15T14:41:19.528Z,99720.22
2023-04-15T14:44:21.496Z,99714.72
2023-04-15T14:47:23.786Z,99731.34
2023-04-15T14:50:26.801Z,99735.34
2023-04-15T14:53:29.267Z,99741.56
2023-04-15T14:56:32.003Z,99750.00
2023-04-15T14:59:34.118Z,99755.44
2023-04-15T15:02:39.682Z,99758.16
2023-04-15T15:05:43.130Z,99761.44
2023-04-15T15:08:46.430Z,99746.56
2023-04-15T15:11:48.418Z,99770.16
2023-04-15T15:14:50.901Z,99765.25
2023-04-15T15:17:53.972Z,99772.31
2023-04-15T15:20:56.359Z,99770.25
2023-04-15T15:23:58.222Z,99774.88
2023-04-15T15:26:59.985Z,99773.31
2023-04-15T15:30:02.024Z,99769.41
2023-04-15T15:33:04.309Z,99769.88
2023-04-15T15:36:10.826Z,99773.94
2023-04-15T15:39:12.608Z,99784.31
2023-04-15T15:42:14.684Z,99782.63
2023-04-15T15:45:17.201Z,99787.34
2023-04-15T15:48:19.034Z,99783.47
2023-04-15T15:51:21.036Z,99812.25
2023-04-15T15:54:22.873Z,99809.94
2023-04-15T15:57:24.708Z,99810.44
2023-04-15T16:00:26.553Z,99818.47
2023-04-15T16:03:29.270Z,99820.41
2023-04-15T16:06:34.459Z,99825.19
2023-04-15T16:09:37.165Z,99822.50
2023-04-15T16:12:39.095Z,99832.34
2023-04-15T16:15:41.215Z,99838.56
2023-04-15T16:18:43.133Z,99842.44
2023-04-15T16:21:44.973Z,99864.75
2023-04-15T16:24:46.953Z,99913.16
2023-04-15T16:28:00.923Z,99900.63
2023-04-15T16:31:07.712Z,99883.28
2023-04-15T16:34:10.430Z,99894.44
2023-04-15T16:37:12.307Z,99893.03
2023-04-15T16:40:15.326Z,99892.53
2023-04-15T16:43:17.593Z,99902.44
2023-04-15T16:46:19.579Z,99892.47
2023-04-15T16:49:21.356Z,99888.91
2023-04-15T16:52:23.126Z,99890.31
2023-04-15T16:55:24.974Z,99898.28
2023-04-15T16:58:28.826Z,99911.63
2023-04-15T17:01:31.148Z,99921.97
2023-04-15T17:04:33.471Z,99949.13
2023-04-15T17:07:35.799Z,99929.16
2023-04-15T17:10:37.691Z,99924.72
2023-04-15T17:13:40.034Z,99935.78
2023-04-15T17:16:43.185Z,99943.78
2023-04-15T17:19:46.583Z,99937.47
2023-04-15T17:22:49.209Z,99938.56
2023-04-15T17:25:51.580Z,99938.56
2023-04-15T17:28:53.505Z,99942.63
2023-04-15T17:31:55.846Z,99947.25
2023-04-15T17:34:58.513Z,99946.94
2023-04-15T17:38:00.596Z,99950.38
2023-04-15T17:41:02.853Z,99959.81
2023-04-15T17:44:04.950Z,99950.41
2023-04-15T17:47:07.236Z,99953.66
2023-04-15T17:50:11.533Z,99946.44
2023-04-15T17:53:13.636Z,99974.22
2023-04-15T17:56:15.644Z,99970.09
2023-04-15T17:59:18.369Z,99972.50
2023-04-15T18:02:20.667Z,99971.50
2023-04-15T18:05:23.102Z,99982.75
2023-04-15T18:08:25.687Z,100000.06
2023-04-15T18:11:27.731Z,99999.41
2023-04-15T18:14:34.839Z,100005.03
2023-04-15T18:17:37.310Z,100011.59
2023-04-15T18:20:39.418Z,100014.28
2023-04-15T18:23:41.475Z,100012.06
2023-04-15T18:26:43.540Z,100016.75
2023-04-15T18:29:46.060Z,100013.03
2023-04-15T18:32:48.309Z,100019.16
2023-04-15T18:35:50.720Z,100032.22
2023-04-15T18:38:53.089Z,100035.00
2023-04-15T18:41:56.131Z,100027.63
2023-04-15T18:44:58.634Z,100042.53
2023-04-15T18:48:01.128Z,100047.69
2023-04-15T18:51:03.284Z,100045.28
2023-04-15T18:54:05.300Z,100051.59
2023-04-15T18:57:07.314Z,100066.19
2023-04-15T19:00:11.485Z,100064.03
2023-04-15T19:03:13.865Z,100070.84
2023-04-15T19:06:16.620Z,100074.53
2023-04-15T19:09:18.801Z,100068.50
2023-04-15T19:12:21.018Z,100078.50
2023-04-15T19:15:23.132Z,100082.81
2023-04-15T19:18:25.101Z,100085.41
2023-04-15T19:21:27.898Z,100093.50
2023-04-15T19:24:33.018Z,100095.50
2023-04-15T19:27:35.414Z,100094.91
2023-04-15T19:30:37.541Z,100096.97
2023-04-15T19:33:39.707Z,100103.47
2023-04-15T19:36:42.063Z,100110.12
2023-04-15T19:39:44.213Z,100117.12
2023-04-15T19:42:46.708Z,100122.97
2023-04-15T19:45:52.150Z,100124.69
2023-04-15T19:48:55.360Z,100126.69
2023-04-15T19:51:57.771Z,100128.56
2023-04-15T19:54:59.809Z,100131.16
2023-04-15T19:58:01.865Z,100127.47
2023-04-15T20:01:04.147Z,100134.09
2023-04-15T20:04:07.012Z,100140.75
2023-04-15T20:07:10.017Z,100146.31
2023-04-15T20:10:13.298Z,100147.34
2023-04-15T20:13:15.709Z,100150.62
2023-04-15T20:16:17.780Z,100151.66
2023-04-15T20:19:19.927Z,100152.16
2023-04-15T20:22:22.097Z,100157.16
2023-04-15T20:25:23.921Z,100157.88
2023-04-15T20:28:27.528Z,100161.28
2023-04-15T20:31:29.592Z,100162.25
2023-04-15T20:34:31.710Z,100178.00
2023-04-15T20:37:33.988Z,100181.62
2023-04-15T20:40:36.408Z,100178.88
2023-04-15T20:43:38.357Z,100190.25
2023-04-15T20:46:40.563Z,100176.88
2023-04-15T20:49:42.940Z,100185.75
2023-04-15T20:52:44.855Z,100166.56
2023-04-15T20:55:46.800Z,100186.63
2023-04-15T20:58:48.845Z,100193.50
2023-04-15T21:01:50.923Z,100188.84
2023-04-15T21:04:52.829Z,100190.75
2023-04-15T21:07:54.851Z,100195.31
2023-04-15T21:10:57.389Z,100190.13
2023-04-15T21:13:59.253Z,100192.63
2023-04-15T21:17:08.468Z,100199.69
2023-04-15T21:20:12.371Z,100189.78
2023-04-15T21:23:14.271Z,100194.00
2023-04-15T21:26:16.137Z,100204.50
2023-04-15T21:29:18.327Z,100210.13
2023-04-15T21:32:20.274Z,100209.31
2023-04-15T21:35:22.152Z,100210.28
2023-04-15T21:38:24.138Z,100211.16
2023-04-15T21:41:26.681Z,100214.06
2023-04-15T21:44:28.624Z,100227.31
2023-04-15T21:47:30.639Z,100224.66
2023-04-15T21:50:32.526Z,100238.78
2023-04-15T21:53:34.982Z,100231.69
2023-04-15T21:56:37.890Z,100231.44
2023-04-15T21:59:39.685Z,100246.84
2023-04-15T22:02:42.223Z,100245.09
2023-04-15T22:05:45.857Z,100249.41
2023-04-15T22:08:57.030Z,100247.50
2023-04-15T22:11:59.988Z,100249.22
2023-04-15T22:15:02.550Z,100256.19
2023-04-15T22:18:05.514Z,100251.09
2023-04-15T22:21:07.969Z,100255.50
2023-04-15T22:24:39.238Z,100263.34
2023-04-15T22:27:31.712Z,100265.22
2023-04-15T22:30:39.896Z,100263.50
2023-04-15T22:33:41.686Z,100259.88
2023-04-15T22:36:43.419Z,100260.66
2023-04-15T22:39:45.603Z,100266.75
2023-04-15T22:42:48.108Z,100265.69
2023-04-15T22:45:50.728Z,100272.09
2023-04-15T22:48:54.130Z,100270.38
2023-04-15T22:51:56.066Z,100267.87
2023-04-15T22:54:58.322Z,100269.84
2023-04-15T22:58:00.240Z,100276.12
2023-04-15T23:01:02.572Z,100280.69
2023-04-15T23:04:07.068Z,100279.09
2023-04-15T23:07:12.939Z,100286.34
2023-04-15T23:10:14.687Z,100284.22
2023-04-15T23:13:16.477Z,100283.53
2023-04-15T23:16:18.297Z,100280.75
2023-04-15T23:19:20.549Z,100278.50
2023-04-15T23:22:22.659Z,100282.03
2023-04-15T23:25:24.439Z,100281.25
2023-04-15T23:28:26.276Z,100281.25
2023-04-15T23:31:28.369Z,100283.09
2023-04-15T23:34:30.949Z,100277.87
2023-04-15T23:37:32.810Z,100275.38
2023-04-15T23:40:34.763Z,100282.88
2023-04-15T23:43:36.731Z,100281.22
2023-04-15T23:46:38.576Z,100270.03
2023-04-15T23:49:41.011Z,100279.97
2023-04-15T23:52:42.864Z,100282.38
2023-04-15T23:55:44.696Z,100274.53
2023-04-15T23:58:46.678Z,100286.69
